createdAt,value
2019-03-22T00:00:00.770Z,102504.54
2019-03-22T00:02:35.386Z,102505.39
2019-03-22T00:05:11.683Z,102498.09
2019-03-22T00:07:48.518Z,102492.07
2019-03-22T00:10:23.483Z,102502.37
2019-03-22T00:12:58.306Z,102501.53
2019-03-22T00:15:32.912Z,102502.38
2019-03-22T00:18:07.515Z,102496.38
2019-03-22T00:20:42.102Z,102500.65
2019-03-22T00:23:18.243Z,102495.50
2019-03-22T00:25:53.708Z,102491.64
2019-03-22T00:28:29.818Z,102495.51
2019-03-22T00:31:04.311Z,102495.95
2019-03-22T00:33:38.791Z,102490.36
2019-03-22T00:36:13.347Z,102495.92
2019-03-22T00:38:47.871Z,102489.90
2019-03-22T00:41:22.323Z,102484.34
2019-03-22T00:43:56.962Z,102484.75
2019-03-22T00:46:31.433Z,102490.34
2019-03-22T00:49:06.370Z,102489.91
2019-03-22T00:51:41.257Z,102486.45
2019-03-22T00:54:17.295Z,102483.03
2019-03-22T00:56:51.892Z,102482.16
2019-03-22T00:59:26.832Z,102479.99
2019-03-22T01:02:01.551Z,102480.41
2019-03-22T01:04:36.448Z,102488.09
2019-03-22T01:07:11.340Z,102493.64
2019-03-22T01:09:45.858Z,102481.21
2019-03-22T01:12:20.569Z,102488.05
2019-03-22T01:14:55.538Z,102487.59
2019-03-22T01:17:31.814Z,102492.73
2019-03-22T01:20:06.980Z,102479.44
2019-03-22T01:22:41.577Z,102478.98
2019-03-22T01:25:17.897Z,102477.70
2019-03-22T01:27:52.793Z,102477.66
2019-03-22T01:30:27.232Z,102476.31
2019-03-22T01:33:01.956Z,102483.58
2019-03-22T01:35:40.047Z,102490.01
2019-03-22T01:38:14.722Z,102489.16
2019-03-22T01:40:49.239Z,102483.58
2019-03-22T01:43:24.040Z,102482.30
2019-03-22T01:45:58.711Z,102482.34
2019-03-22T01:48:33.254Z,102479.78
2019-03-22T01:51:09.538Z,102480.63
2019-03-22T01:53:45.861Z,102478.05
2019-03-22T01:56:21.808Z,102476.36
2019-03-22T01:58:56.502Z,102472.08
2019-03-22T02:01:31.709Z,102468.20
2019-03-22T02:04:06.192Z,102471.63
2019-03-22T02:06:40.785Z,102481.07
2019-03-22T02:09:17.095Z,102474.63
2019-03-22T02:11:51.718Z,102473.79
2019-03-22T02:14:26.241Z,102466.88
2019-03-22T02:17:02.320Z,102462.16
2019-03-22T02:19:37.334Z,102458.64
2019-03-22T02:22:12.040Z,102461.59
2019-03-22T02:24:46.626Z,102457.27
2019-03-22T02:27:21.215Z,102457.66
2019-03-22T02:29:56.060Z,102452.53
2019-03-22T02:32:30.630Z,102448.66
2019-03-22T02:35:07.515Z,102452.46
2019-03-22T02:37:42.179Z,102449.35
2019-03-22T02:40:17.311Z,102451.08
2019-03-22T02:42:52.039Z,102451.91
2019-03-22T02:45:26.889Z,102456.58
2019-03-22T02:48:31.617Z,102459.17
2019-03-22T02:51:07.854Z,102461.34
2019-03-22T02:53:42.477Z,102458.75
2019-03-22T02:56:18.026Z,102457.03
2019-03-22T02:58:52.658Z,102451.46
2019-03-22T03:01:27.284Z,102447.20
2019-03-22T03:04:01.985Z,102455.30
2019-03-22T03:06:36.803Z,102454.45
2019-03-22T03:09:11.521Z,102451.84
2019-03-22T03:11:46.102Z,102447.40
2019-03-22T03:14:22.421Z,102451.03
2019-03-22T03:16:56.978Z,102450.67
2019-03-22T03:19:31.567Z,102444.95
2019-03-22T03:22:07.781Z,102446.32
2019-03-22T03:24:42.381Z,102441.69
2019-03-22T03:27:16.933Z,102439.55
2019-03-22T03:29:53.286Z,102438.30
2019-03-22T03:32:27.782Z,102437.06
2019-03-22T03:35:02.383Z,102439.34
2019-03-22T03:37:38.510Z,102439.83
2019-03-22T03:40:13.877Z,102447.60
2019-03-22T03:42:48.375Z,102453.31
2019-03-22T03:45:37.972Z,102453.27
2019-03-22T03:48:14.428Z,102450.30
2019-03-22T03:50:50.343Z,102450.31
2019-03-22T03:53:25.006Z,102453.80
2019-03-22T03:55:59.861Z,102447.42
2019-03-22T03:58:34.455Z,102454.61
2019-03-22T04:01:09.125Z,102450.75
2019-03-22T04:03:43.642Z,102445.53
2019-03-22T04:06:18.229Z,102443.81
2019-03-22T04:08:54.378Z,102443.87
2019-03-22T04:11:28.889Z,102441.34
2019-03-22T04:14:03.767Z,102437.96
2019-03-22T04:16:39.953Z,102435.41
2019-03-22T04:19:14.503Z,102442.28
2019-03-22T04:21:55.522Z,102441.52
2019-03-22T04:24:30.100Z,102436.84
2019-03-22T04:27:04.664Z,102438.52
2019-03-22T04:29:39.215Z,102442.72
2019-03-22T04:32:16.730Z,102446.14
2019-03-22T04:34:51.567Z,102442.69
2019-03-22T04:37:26.116Z,102447.84
2019-03-22T04:40:00.751Z,102448.19
2019-03-22T04:42:35.414Z,102450.28
2019-03-22T04:45:10.104Z,102443.80
2019-03-22T04:48:04.448Z,102449.52
2019-03-22T04:50:43.798Z,102447.42
2019-03-22T04:53:23.669Z,102450.09
2019-03-22T04:56:04.234Z,102454.65
2019-03-22T04:58:42.227Z,102450.91
2019-03-22T05:01:19.425Z,102452.22
2019-03-22T05:03:58.775Z,102451.47
2019-03-22T05:06:34.815Z,102454.41
2019-03-22T05:09:14.584Z,102449.61
2019-03-22T05:11:53.779Z,102453.02
2019-03-22T05:14:30.167Z,102458.01
2019-03-22T05:17:06.331Z,102455.01
2019-03-22T05:19:45.953Z,102457.20
2019-03-22T05:22:26.820Z,102459.73
2019-03-22T05:25:04.169Z,102461.42
2019-03-22T05:27:43.642Z,102465.22
2019-03-22T05:31:29.550Z,102466.64
2019-03-22T05:34:06.903Z,102471.30
2019-03-22T05:36:41.640Z,102474.19
2019-03-22T05:39:17.583Z,102473.87
2019-03-22T05:41:52.094Z,102481.58
2019-03-22T05:44:27.973Z,102475.53
2019-03-22T05:47:21.534Z,102472.59
2019-03-22T05:49:55.949Z,102470.03
2019-03-22T05:52:30.502Z,102481.91
2019-03-22T05:55:08.464Z,102480.77
2019-03-22T05:57:43.494Z,102479.94
2019-03-22T06:00:18.732Z,102481.09
2019-03-22T06:02:53.153Z,102479.61
2019-03-22T06:05:28.210Z,102474.98
2019-03-22T06:08:02.791Z,102479.66
2019-03-22T06:10:37.293Z,102491.69
2019-03-22T06:13:12.414Z,102488.28
2019-03-22T06:15:47.106Z,102487.91
2019-03-22T06:18:21.834Z,102487.91
2019-03-22T06:20:56.369Z,102486.27
2019-03-22T06:23:31.091Z,102493.63
2019-03-22T06:26:05.631Z,102494.11
2019-03-22T06:28:40.208Z,102494.23
2019-03-22T06:31:14.766Z,102500.74
2019-03-22T06:33:49.238Z,102505.88
2019-03-22T06:36:24.224Z,102502.86
2019-03-22T06:38:58.898Z,102503.75
2019-03-22T06:41:33.368Z,102508.12
2019-03-22T06:44:08.004Z,102516.33
2019-03-22T06:46:42.380Z,102513.02
2019-03-22T06:49:17.024Z,102507.53
2019-03-22T06:51:51.835Z,102508.81
2019-03-22T06:54:31.755Z,102503.59
2019-03-22T06:57:03.862Z,102503.45
2019-03-22T06:59:38.829Z,102509.98
2019-03-22T07:02:13.557Z,102500.94
2019-03-22T07:04:48.181Z,102506.50
2019-03-22T07:07:27.209Z,102510.88
2019-03-22T07:10:01.818Z,102518.03
2019-03-22T07:12:36.479Z,102522.91
2019-03-22T07:15:11.414Z,102516.11
2019-03-22T07:17:47.453Z,102513.95
2019-03-22T07:20:22.185Z,102521.22
2019-03-22T07:22:56.810Z,102510.20
2019-03-22T07:25:31.444Z,102511.37
2019-03-22T07:28:06.167Z,102509.55
2019-03-22T07:30:40.897Z,102507.98
2019-03-22T07:33:17.366Z,102505.44
2019-03-22T07:35:51.986Z,102516.92
2019-03-22T07:38:26.621Z,102511.00
2019-03-22T07:41:01.195Z,102526.45
2019-03-22T07:43:35.833Z,102533.17
2019-03-22T07:46:10.483Z,102528.06
2019-03-22T07:48:45.851Z,102531.67
2019-03-22T07:51:20.645Z,102526.59
2019-03-22T07:53:55.358Z,102515.08
2019-03-22T07:56:31.694Z,102517.13
2019-03-22T07:59:06.506Z,102514.27
2019-03-22T08:01:41.253Z,102503.63
2019-03-22T08:04:15.878Z,102496.92
2019-03-22T08:06:51.014Z,102494.06
2019-03-22T08:09:25.949Z,102492.47
2019-03-22T08:12:01.993Z,102486.67
2019-03-22T08:14:37.594Z,102490.55
2019-03-22T08:17:16.665Z,102493.25
2019-03-22T08:19:51.804Z,102490.87
2019-03-22T08:22:26.442Z,102506.53
2019-03-22T08:25:01.016Z,102499.47
2019-03-22T08:27:35.787Z,102502.48
2019-03-22T08:30:10.896Z,102496.97
2019-03-22T08:32:45.614Z,102496.86
2019-03-22T08:35:22.160Z,102496.39
2019-03-22T08:37:57.388Z,102492.94
2019-03-22T08:40:32.059Z,102480.94
2019-03-22T08:43:07.035Z,102480.54
2019-03-22T08:45:41.796Z,102479.91
2019-03-22T08:48:16.614Z,102487.16
2019-03-22T08:50:51.273Z,102489.41
2019-03-22T08:53:25.867Z,102483.77
2019-03-22T08:56:01.984Z,102481.21
2019-03-22T08:58:36.699Z,102479.89
2019-03-22T09:01:11.366Z,102477.90
2019-03-22T09:03:46.150Z,102471.08
2019-03-22T09:06:21.126Z,102470.64
2019-03-22T09:08:57.359Z,102465.00
2019-03-22T09:11:31.933Z,102462.75
2019-03-22T09:14:10.125Z,102462.31
2019-03-22T09:16:47.726Z,102469.98
2019-03-22T09:19:22.276Z,102469.81
2019-03-22T09:22:00.181Z,102466.63
2019-03-22T09:24:39.329Z,102462.80
2019-03-22T09:27:11.367Z,102462.58
2019-03-22T09:29:47.397Z,102458.73
2019-03-22T09:32:22.427Z,102455.72
2019-03-22T09:34:59.707Z,102448.72
2019-03-22T09:37:33.384Z,102444.75
2019-03-22T09:40:08.806Z,102449.40
2019-03-22T09:42:43.529Z,102443.02
2019-03-22T09:45:20.288Z,102436.84
2019-03-22T09:47:55.120Z,102425.63
2019-03-22T09:50:29.901Z,102429.16
2019-03-22T09:53:04.493Z,102425.86
2019-03-22T09:55:39.593Z,102428.76
2019-03-22T09:58:14.682Z,102420.52
2019-03-22T10:00:49.423Z,102417.61
2019-03-22T10:03:24.066Z,102414.37
2019-03-22T10:05:58.681Z,102417.21
2019-03-22T10:08:33.316Z,102418.00
2019-03-22T10:11:09.711Z,102410.33
2019-03-22T10:13:44.532Z,102407.27
2019-03-22T10:16:19.194Z,102402.78
2019-03-22T10:18:54.257Z,102401.48
2019-03-22T10:21:29.950Z,102400.41
2019-03-22T10:24:04.583Z,102394.59
2019-03-22T10:26:39.245Z,102400.45
2019-03-22T10:29:14.024Z,102397.98
2019-03-22T10:31:48.711Z,102397.06
2019-03-22T10:34:25.194Z,102395.75
2019-03-22T10:36:59.803Z,102392.31
2019-03-22T10:39:34.469Z,102398.42
2019-03-22T10:42:09.572Z,102396.45
2019-03-22T10:44:44.247Z,102390.84
2019-03-22T10:47:19.049Z,102385.07
2019-03-22T10:49:53.742Z,102376.45
2019-03-22T10:52:28.403Z,102383.05
2019-03-22T10:55:23.140Z,102374.58
2019-03-22T10:57:40.657Z,102367.37
2019-03-22T11:00:18.532Z,102374.64
2019-03-22T11:02:53.082Z,102365.56
2019-03-22T11:05:29.228Z,102360.41
2019-03-22T11:08:04.014Z,102356.31
2019-03-22T11:10:40.119Z,102355.87
2019-03-22T11:13:14.592Z,102347.26
2019-03-22T11:15:49.186Z,102344.28
2019-03-22T11:18:23.753Z,102333.65
2019-03-22T11:21:05.153Z,102335.41
2019-03-22T11:23:35.942Z,102330.56
2019-03-22T11:26:10.913Z,102329.72
2019-03-22T11:28:47.028Z,102327.33
2019-03-22T11:31:28.318Z,102321.63
2019-03-22T11:33:57.917Z,102317.80
2019-03-22T11:36:32.613Z,102315.48
2019-03-22T11:39:15.730Z,102314.45
2019-03-22T11:41:48.956Z,102310.48
2019-03-22T11:44:23.492Z,102313.60
2019-03-22T11:46:58.829Z,102309.42
2019-03-22T11:49:33.490Z,102302.53
2019-03-22T11:52:08.448Z,102304.08
2019-03-22T11:54:44.880Z,102300.50
2019-03-22T11:57:21.397Z,102297.66
2019-03-22T11:59:56.365Z,102290.64
2019-03-22T12:02:30.984Z,102289.05
2019-03-22T12:05:06.963Z,102280.58
2019-03-22T12:07:41.848Z,102276.12
2019-03-22T12:10:18.027Z,102278.18
2019-03-22T12:12:52.782Z,102267.45
2019-03-22T12:15:28.704Z,102265.62
2019-03-22T12:18:05.194Z,102252.48
2019-03-22T12:20:39.816Z,102256.40
2019-03-22T12:23:14.547Z,102242.83
2019-03-22T12:25:49.515Z,102245.53
2019-03-22T12:28:23.952Z,102228.47
2019-03-22T12:30:58.520Z,102235.34
2019-03-22T12:33:33.073Z,102231.56
2019-03-22T12:36:07.537Z,102225.69
2019-03-22T12:38:42.620Z,102219.53
2019-03-22T12:41:18.164Z,102215.30
2019-03-22T12:43:52.724Z,102219.47
2019-03-22T12:46:27.193Z,102222.07
2019-03-22T12:49:03.490Z,102212.81
2019-03-22T12:51:38.206Z,102209.41
2019-03-22T12:54:14.249Z,102194.30
2019-03-22T12:56:48.908Z,102189.34
2019-03-22T12:59:23.445Z,102187.52
2019-03-22T13:02:00.964Z,102183.57
2019-03-22T13:04:35.742Z,102178.70
2019-03-22T13:07:10.449Z,102175.12
2019-03-22T13:09:45.199Z,102181.93
2019-03-22T13:12:19.778Z,102175.38
2019-03-22T13:14:54.351Z,102173.88
2019-03-22T13:17:29.156Z,102175.48
2019-03-22T13:20:04.005Z,102173.88
2019-03-22T13:22:38.532Z,102172.22
2019-03-22T13:25:13.359Z,102164.23
2019-03-22T13:27:49.539Z,102165.59
2019-03-22T13:30:49.638Z,102156.63
2019-03-22T13:33:26.011Z,102162.63
2019-03-22T13:36:00.604Z,102160.52
2019-03-22T13:38:35.871Z,102163.34
2019-03-22T13:41:10.376Z,102143.10
2019-03-22T13:43:44.975Z,102147.27
2019-03-22T13:46:19.573Z,102139.97
2019-03-22T13:48:54.480Z,102147.95
2019-03-22T13:51:28.996Z,102144.95
2019-03-22T13:54:05.369Z,102136.88
2019-03-22T13:56:39.974Z,102139.80
2019-03-22T13:59:14.590Z,102136.33
2019-03-22T14:01:49.185Z,102128.06
2019-03-22T14:04:23.776Z,102120.84
2019-03-22T14:06:58.547Z,102111.55
2019-03-22T14:09:33.396Z,102110.50
2019-03-22T14:12:07.963Z,102102.70
2019-03-22T14:14:44.327Z,102110.88
2019-03-22T14:17:18.932Z,102108.34
2019-03-22T14:19:53.878Z,102104.02
2019-03-22T14:22:28.538Z,102095.27
2019-03-22T14:25:05.425Z,102105.66
2019-03-22T14:27:40.370Z,102094.05
2019-03-22T14:30:15.669Z,102096.28
2019-03-22T14:32:50.401Z,102097.34
2019-03-22T14:35:25.004Z,102090.09
2019-03-22T14:37:59.692Z,102089.91
2019-03-22T14:40:34.284Z,102085.52
2019-03-22T14:43:08.774Z,102080.61
2019-03-22T14:45:43.475Z,102079.98
2019-03-22T14:48:17.951Z,102072.48
2019-03-22T14:50:53.050Z,102075.20
2019-03-22T14:53:28.982Z,102064.78
2019-03-22T14:56:04.022Z,102061.00
2019-03-22T14:58:38.731Z,102061.30
2019-03-22T15:01:13.583Z,102053.47
2019-03-22T15:03:48.040Z,102051.62
2019-03-22T15:06:22.821Z,102046.65
2019-03-22T15:08:57.212Z,102045.53
2019-03-22T15:11:32.254Z,102040.37
2019-03-22T15:14:25.716Z,102043.92
2019-03-22T15:17:23.986Z,102035.59
2019-03-22T15:20:23.465Z,102033.03
2019-03-22T15:23:15.593Z,102029.63
2019-03-22T15:26:18.567Z,102023.83
2019-03-22T15:29:26.700Z,102022.86
2019-03-22T15:32:35.171Z,102012.59
2019-03-22T15:35:33.314Z,102009.00
2019-03-22T15:38:29.738Z,102013.37
2019-03-22T15:41:05.481Z,102005.84
2019-03-22T15:43:40.228Z,101999.21
2019-03-22T15:46:14.939Z,101994.80
2019-03-22T15:48:49.888Z,101996.31
2019-03-22T15:51:24.603Z,101994.65
2019-03-22T15:53:59.038Z,101993.48
2019-03-22T15:56:33.755Z,101991.59
2019-03-22T15:59:08.517Z,101990.14
2019-03-22T16:01:44.552Z,101989.06
2019-03-22T16:04:19.084Z,101984.52
2019-03-22T16:06:54.102Z,101985.18
2019-03-22T16:09:28.671Z,101979.67
2019-03-22T16:12:04.488Z,101977.12
2019-03-22T16:14:40.451Z,101976.33
2019-03-22T16:17:15.086Z,101975.09
2019-03-22T16:19:49.607Z,101970.17
2019-03-22T16:22:24.164Z,101967.91
2019-03-22T16:24:58.868Z,101963.91
2019-03-22T16:27:33.888Z,101963.62
2019-03-22T16:30:09.304Z,101964.79
2019-03-22T16:32:44.378Z,101955.61
2019-03-22T16:35:19.187Z,101957.84
2019-03-22T16:37:55.276Z,101948.55
2019-03-22T16:40:30.206Z,101951.02
2019-03-22T16:43:04.846Z,101945.68
2019-03-22T16:45:41.906Z,101943.36
2019-03-22T16:48:16.629Z,101940.99
2019-03-22T16:50:52.692Z,101945.72
2019-03-22T16:53:27.362Z,101945.63
2019-03-22T16:56:02.230Z,101935.50
2019-03-22T16:58:38.317Z,101925.55
2019-03-22T17:01:12.959Z,101926.25
2019-03-22T17:03:47.566Z,101930.13
2019-03-22T17:06:22.533Z,101926.07
2019-03-22T17:09:00.908Z,101928.44
2019-03-22T17:11:35.526Z,101924.45
2019-03-22T17:14:11.289Z,101926.77
2019-03-22T17:16:46.527Z,101922.40
2019-03-22T17:19:21.105Z,101923.92
2019-03-22T17:21:55.751Z,101932.19
2019-03-22T17:24:30.748Z,101928.36
2019-03-22T17:27:05.224Z,101923.56
2019-03-22T17:29:39.984Z,101921.94
2019-03-22T17:32:15.053Z,101924.02
2019-03-22T17:34:49.884Z,101917.56
2019-03-22T17:37:26.074Z,101914.85
2019-03-22T17:40:01.079Z,101910.30
2019-03-22T17:42:37.107Z,101906.14
2019-03-22T17:45:12.573Z,101911.96
2019-03-22T17:47:47.145Z,101905.59
2019-03-22T17:50:22.094Z,101903.09
2019-03-22T17:52:58.110Z,101898.18
2019-03-22T17:55:32.904Z,101895.95
2019-03-22T17:58:07.520Z,101897.38
2019-03-22T18:00:45.053Z,101897.36
2019-03-22T18:03:21.019Z,101897.60
2019-03-22T18:05:56.992Z,101901.94
2019-03-22T18:08:31.671Z,101898.69
2019-03-22T18:11:06.977Z,101898.83
2019-03-22T18:13:41.621Z,101900.38
2019-03-22T18:16:16.234Z,101892.25
2019-03-22T18:18:52.783Z,101896.46
2019-03-22T18:21:28.034Z,101892.30
2019-03-22T18:24:02.984Z,101894.05
2019-03-22T18:26:38.173Z,101892.36
2019-03-22T18:29:13.091Z,101891.19
2019-03-22T18:31:47.973Z,101891.52
2019-03-22T18:34:33.766Z,101890.98
2019-03-22T18:40:51.802Z,101891.63
2019-03-22T18:43:26.377Z,101890.44
2019-03-22T18:46:01.568Z,101886.92
2019-03-22T18:48:36.212Z,101889.74
2019-03-22T18:51:11.266Z,101894.52
2019-03-22T18:53:46.050Z,101889.70
2019-03-22T18:56:21.526Z,101888.91
2019-03-22T18:58:56.230Z,101889.22
2019-03-22T19:01:30.969Z,101894.53
2019-03-22T19:04:05.536Z,101899.08
2019-03-22T19:06:40.387Z,101899.08
2019-03-22T19:09:15.088Z,101897.24
2019-03-22T19:11:51.301Z,101898.95
2019-03-22T19:14:27.126Z,101892.50
2019-03-22T19:17:02.465Z,101892.67
2019-03-22T19:19:37.579Z,101891.64
2019-03-22T19:22:12.770Z,101893.91
2019-03-22T19:24:47.726Z,101895.09
2019-03-22T19:27:22.552Z,101899.27
2019-03-22T19:29:57.592Z,101893.98
2019-03-22T19:32:32.728Z,101895.02
2019-03-22T19:35:09.002Z,101896.88
2019-03-22T19:37:43.542Z,101897.50
2019-03-22T19:40:18.384Z,101898.80
2019-03-22T19:42:57.832Z,101894.00
2019-03-22T19:45:33.508Z,101894.34
2019-03-22T19:48:08.195Z,101894.70
2019-03-22T19:50:42.867Z,101894.57
2019-03-22T19:53:17.966Z,101888.25
2019-03-22T19:55:53.127Z,101885.61
2019-03-22T19:58:36.448Z,101887.13
2019-03-22T20:01:11.627Z,101888.27
2019-03-22T20:03:47.259Z,101891.20
2019-03-22T20:06:23.116Z,101892.72
2019-03-22T20:08:58.584Z,101895.15
2019-03-22T20:11:33.348Z,101897.92
2019-03-22T20:14:08.130Z,101896.59
2019-03-22T20:16:44.337Z,101899.86
2019-03-22T20:19:20.335Z,101902.52
2019-03-22T20:21:56.334Z,101899.36
2019-03-22T20:24:33.398Z,101904.09
2019-03-22T20:27:09.458Z,101901.18
2019-03-22T20:29:44.437Z,101902.16
2019-03-22T20:32:20.968Z,101903.92
2019-03-22T20:34:55.828Z,101901.90
2019-03-22T20:37:30.439Z,101897.00
2019-03-22T20:40:07.119Z,101894.39
2019-03-22T20:42:45.594Z,101892.95
2019-03-22T20:45:24.393Z,101886.27
2019-03-22T20:47:59.494Z,101889.09
2019-03-22T20:50:36.119Z,101890.14
2019-03-22T20:53:10.022Z,101890.02
2019-03-22T20:55:46.389Z,101890.42
2019-03-22T20:58:21.456Z,101890.64
2019-03-22T21:00:58.526Z,101890.48
2019-03-22T21:03:34.702Z,101887.06
2019-03-22T21:06:09.256Z,101886.12
2019-03-22T21:08:44.479Z,101886.75
2019-03-22T21:11:20.200Z,101886.66
2019-03-22T21:13:55.252Z,101881.63
2019-03-22T21:16:30.264Z,101882.62
2019-03-22T21:19:05.167Z,101883.03
2019-03-22T21:21:39.938Z,101878.88
2019-03-22T21:24:16.436Z,101881.10
2019-03-22T21:26:51.426Z,101878.29
2019-03-22T21:29:26.087Z,101871.59
2019-03-22T21:32:02.653Z,101869.58
2019-03-22T21:34:37.288Z,101873.21
2019-03-22T21:37:12.409Z,101874.47
2019-03-22T21:39:47.591Z,101874.25
2019-03-22T21:42:24.043Z,101875.31
2019-03-22T21:45:00.611Z,101874.95
2019-03-22T21:47:35.317Z,101867.86
2019-03-22T21:50:10.147Z,101868.28
2019-03-22T21:52:44.878Z,101866.29
2019-03-22T21:55:19.388Z,101858.60
2019-03-22T21:57:53.985Z,101859.94
2019-03-22T22:00:28.677Z,101857.54
2019-03-22T22:03:05.136Z,101858.64
2019-03-22T22:05:47.448Z,101856.05
2019-03-22T22:08:16.095Z,101855.59
2019-03-22T22:10:59.323Z,101850.45
2019-03-22T22:13:27.266Z,101849.16
2019-03-22T22:16:03.807Z,101849.22
2019-03-22T22:18:38.601Z,101845.23
2019-03-22T22:21:13.305Z,101843.23
2019-03-22T22:23:47.916Z,101839.17
2019-03-22T22:26:22.497Z,101839.34
2019-03-22T22:29:00.710Z,101839.81
2019-03-22T22:31:37.053Z,101839.69
2019-03-22T22:34:11.698Z,101841.54
2019-03-22T22:36:46.247Z,101843.29
2019-03-22T22:39:20.980Z,101836.95
2019-03-22T22:41:55.639Z,101834.44
2019-03-22T22:44:31.639Z,101829.34
2019-03-22T22:47:06.312Z,101832.06
2019-03-22T22:49:40.750Z,101827.84
2019-03-22T22:52:15.312Z,101824.92
2019-03-22T22:54:49.825Z,101821.59
2019-03-22T22:57:24.473Z,101817.75
2019-03-22T22:59:59.378Z,101823.17
2019-03-22T23:02:34.032Z,101822.83
2019-03-22T23:05:08.795Z,101817.31
2019-03-22T23:07:43.581Z,101810.47
2019-03-22T23:10:20.989Z,101812.48
2019-03-22T23:12:55.823Z,101804.83
2019-03-22T23:15:30.313Z,101806.97
2019-03-22T23:18:06.797Z,101802.37
2019-03-22T23:20:43.162Z,101794.77
2019-03-22T23:23:18.135Z,101792.52
2019-03-22T23:25:52.927Z,101793.05
2019-03-22T23:28:28.011Z,101791.88
2019-03-22T23:31:02.429Z,101788.34
2019-03-22T23:33:37.827Z,101788.64
2019-03-22T23:36:20.182Z,101778.56
2019-03-22T23:38:48.856Z,101782.37
2019-03-22T23:41:24.807Z,101782.84
2019-03-22T23:43:59.464Z,101780.74
2019-03-22T23:46:33.983Z,101774.66
2019-03-22T23:49:08.566Z,101780.44
2019-03-22T23:51:43.288Z,101773.52
2019-03-22T23:54:17.909Z,101773.63
2019-03-22T23:56:52.652Z,101763.82
2019-03-22T23:59:27.308Z,101768.11
